Time;durP1;ratioP1;P1;durP2;ratioP2;P2;SDS_P1;SDS_P2;PMS_P1;PMS_P2;Temp;Humidity;BMP_temperature;BMP_pressure;BME280_temperature;BME280_humidity;BME280_pressure;Samples;Min_cycle;Max_cycle;Signal;HPM_P1;HPM_P2
2021/12/10 00:02:08;;;;;;;12.10;11.80;;;20.00;68.30;;;;;;5013932;28;20470;-50
2021/12/10 00:04:39;;;;;;;12.00;11.70;;;20.00;67.90;;;;;;5014151;28;20469;-47
2021/12/10 00:07:09;;;;;;;12.53;12.20;;;19.90;67.70;;;;;;5014180;28;20489;-47
2021/12/10 00:09:39;;;;;;;11.60;11.30;;;19.90;67.60;;;;;;5033512;28;20955;-46
2021/12/10 00:12:13;;;;;;;12.63;12.23;;;19.80;67.60;;;;;;5033664;28;20465;-47
2021/12/10 00:14:40;;;;;;;11.50;11.20;;;19.70;67.80;;;;;;5033888;28;20507;-48
2021/12/10 00:17:10;;;;;;;11.60;11.17;;;19.60;68.00;;;;;;5033740;28;20446;-53
2021/12/10 00:19:43;;;;;;;12.17;11.80;;;19.60;68.40;;;;;;5033323;28;20962;-47
2021/12/10 00:22:13;;;;;;;12.03;11.73;;;19.50;68.40;;;;;;5033321;28;20483;-49
2021/12/10 00:24:41;;;;;;;11.93;11.53;;;19.50;68.40;;;;;;5033455;28;20457;-47
2021/12/10 00:27:10;;;;;;;11.77;11.43;;;19.40;68.50;;;;;;5033399;28;20481;-47
2021/12/10 00:29:41;;;;;;;11.70;11.40;;;19.40;69.00;;;;;;5033160;28;20457;-47
2021/12/10 00:32:17;;;;;;;11.80;11.50;;;19.40;69.20;;;;;;5033153;28;20838;-47
2021/12/10 00:34:46;;;;;;;12.20;11.90;;;19.40;69.30;;;;;;5033466;28;20444;-49
2021/12/10 00:37:17;;;;;;;11.60;11.30;;;19.40;69.20;;;;;;5033410;28;20854;-48
2021/12/10 00:39:48;;;;;;;12.00;11.70;;;19.30;69.50;;;;;;5013520;28;20808;-48
2021/12/10 00:42:20;;;;;;;11.23;10.93;;;19.20;69.50;;;;;;5023391;28;20468;-48
2021/12/10 00:44:47;;;;;;;11.67;11.37;;;19.20;69.80;;;;;;5033227;28;20453;-51
2021/12/10 00:47:14;;;;;;;12.20;11.70;;;19.10;69.80;;;;;;5033011;28;20846;-52
2021/12/10 00:49:42;;;;;;;12.53;12.13;;;19.10;70.10;;;;;;5032635;28;20452;-47
2021/12/10 00:52:11;;;;;;;12.03;11.73;;;19.10;70.00;;;;;;5032051;28;20469;-48
2021/12/10 00:54:37;;;;;;;12.00;11.70;;;19.10;70.30;;;;;;5032738;28;20445;-47
2021/12/10 00:57:05;;;;;;;11.80;11.50;;;19.00;70.30;;;;;;5033139;28;20445;-49
2021/12/10 00:59:33;;;;;;;12.17;11.77;;;19.00;70.50;;;;;;5032606;28;20453;-47
2021/12/10 01:02:00;;;;;;;11.30;11.00;;;18.90;70.70;;;;;;5032455;28;20469;-47
2021/12/10 01:04:30;;;;;;;11.37;11.07;;;18.90;70.70;;;;;;5032830;28;20449;-47
2021/12/10 01:07:00;;;;;;;12.17;11.77;;;18.90;71.00;;;;;;5032734;28;20492;-47
2021/12/10 01:09:31;;;;;;;11.63;11.33;;;18.80;71.10;;;;;;5032421;28;20453;-47
2021/12/10 01:12:03;;;;;;;12.00;11.70;;;18.80;71.20;;;;;;5032473;28;20468;-46
2021/12/10 01:14:56;;;;;;;12.33;12.03;;;18.80;71.50;;;;;;5032548;28;20442;-48
2021/12/10 01:25:54;;;;;;;12.47;12.07;;;18.70;71.80;;;;;;5012841;28;20444;-47
2021/12/10 01:28:21;;;;;;;12.37;12.00;;;18.60;71.90;;;;;;5020258;28;20861;-47
2021/12/10 01:30:50;;;;;;;11.87;11.57;;;18.60;72.10;;;;;;5032413;28;20441;-49
2021/12/10 01:33:18;;;;;;;12.23;11.93;;;18.60;72.30;;;;;;5031977;28;20468;-47
2021/12/10 01:35:49;;;;;;;11.77;11.47;;;18.60;72.40;;;;;;5032476;28;20452;-47
2021/12/10 01:38:17;;;;;;;11.40;11.10;;;18.60;72.60;;;;;;5032339;28;20484;-47
2021/12/10 01:40:47;;;;;;;12.17;11.87;;;18.60;72.60;;;;;;5032345;28;21012;-47
2021/12/10 01:43:22;;;;;;;12.47;12.17;;;18.50;72.70;;;;;;5032266;28;20804;-47
2021/12/10 01:45:53;;;;;;;12.23;11.87;;;18.50;73.00;;;;;;5031851;28;20451;-47
2021/12/10 01:48:25;;;;;;;12.73;12.33;;;18.40;73.30;;;;;;5012455;28;20446;-47
2021/12/10 01:50:54;;;;;;;12.67;12.27;;;18.40;73.60;;;;;;5012306;28;20445;-47
2021/12/10 01:53:24;;;;;;;11.60;11.30;;;18.30;74.00;;;;;;5012064;28;20473;-47
2021/12/10 01:55:54;;;;;;;11.53;11.23;;;18.30;74.30;;;;;;5012689;28;20533;-49
2021/12/10 01:58:23;;;;;;;12.10;11.70;;;18.30;74.30;;;;;;5024739;28;20448;-51
2021/12/10 02:00:56;;;;;;;11.90;11.60;;;18.30;74.70;;;;;;5032424;28;20445;-47
2021/12/10 02:03:24;;;;;;;12.90;12.40;;;18.20;74.70;;;;;;5031777;28;20465;-47
2021/12/10 02:05:50;;;;;;;11.30;11.00;;;18.20;75.00;;;;;;5032019;28;20863;-47
2021/12/10 02:08:17;;;;;;;11.87;11.57;;;18.20;75.20;;;;;;5031655;28;20449;-48
2021/12/10 02:10:44;;;;;;;11.57;11.27;;;18.20;75.30;;;;;;5032148;28;20456;-47
2021/12/10 02:13:11;;;;;;;12.27;11.87;;;18.20;75.30;;;;;;5031500;28;20484;-47
2021/12/10 02:15:38;;;;;;;11.67;11.27;;;18.20;75.50;;;;;;5031997;28;20452;-47
2021/12/10 02:18:07;;;;;;;11.30;11.00;;;18.10;75.60;;;;;;5031690;28;20511;-47
2021/12/10 02:20:36;;;;;;;11.60;11.30;;;18.10;76.10;;;;;;5031851;28;20456;-48
2021/12/10 02:23:07;;;;;;;12.13;11.83;;;18.10;76.40;;;;;;5031572;28;21017;-49
2021/12/10 02:25:37;;;;;;;11.87;11.57;;;18.10;76.90;;;;;;5031885;28;20455;-52
2021/12/10 02:28:06;;;;;;;12.10;11.70;;;18.00;77.00;;;;;;5031301;28;20572;-51
2021/12/10 02:30:32;;;;;;;11.70;11.40;;;18.00;77.30;;;;;;5031661;28;20471;-53
2021/12/10 02:32:59;;;;;;;11.90;11.60;;;18.00;77.60;;;;;;5031561;28;20840;-49
2021/12/10 02:35:28;;;;;;;11.50;11.20;;;17.90;77.80;;;;;;5031565;28;20459;-46
2021/12/10 02:37:55;;;;;;;12.20;11.87;;;17.90;77.90;;;;;;5031421;28;20946;-48
2021/12/10 02:40:26;;;;;;;11.50;11.10;;;17.90;78.00;;;;;;5031709;28;20449;-47
2021/12/10 02:42:55;;;;;;;11.93;11.63;;;17.90;78.30;;;;;;5031261;28;20485;-47
2021/12/10 02:45:24;;;;;;;12.33;12.03;;;17.90;78.40;;;;;;5031726;28;20445;-49
2021/12/10 02:47:51;;;;;;;11.30;11.00;;;17.90;78.40;;;;;;5031321;28;20484;-49
2021/12/10 02:50:21;;;;;;;11.80;11.50;;;17.90;78.50;;;;;;5031389;28;20441;-49
2021/12/10 02:52:48;;;;;;;11.47;11.17;;;17.90;78.30;;;;;;5031015;28;20480;-47
2021/12/10 02:55:16;;;;;;;11.70;11.40;;;17.90;78.60;;;;;;5031551;28;20911;-48
2021/12/10 02:57:46;;;;;;;11.80;11.50;;;17.90;78.90;;;;;;5031552;28;20880;-47
2021/12/10 03:00:16;;;;;;;11.80;11.50;;;17.80;79.20;;;;;;5031448;28;20454;-49
2021/12/10 03:02:43;;;;;;;12.10;11.80;;;17.80;79.30;;;;;;5031316;28;20461;-53
2021/12/10 03:05:11;;;;;;;12.20;11.90;;;17.80;79.80;;;;;;5031475;28;20460;-47
2021/12/10 03:07:40;;;;;;;11.93;11.60;;;17.80;79.90;;;;;;5031189;28;20551;-47
2021/12/10 03:10:16;;;;;;;11.90;11.60;;;17.80;79.70;;;;;;5031493;28;20533;-47
2021/12/10 03:12:44;;;;;;;12.57;12.17;;;17.80;79.80;;;;;;5030955;28;20508;-46
2021/12/10 03:15:11;;;;;;;11.80;11.40;;;17.80;80.10;;;;;;5031192;28;20452;-48
2021/12/10 03:17:38;;;;;;;11.80;11.50;;;17.80;80.00;;;;;;5034548;28;20441;-47
2021/12/10 03:20:11;;;;;;;12.00;11.63;;;17.70;80.10;;;;;;5035201;28;20931;-47
2021/12/10 03:22:38;;;;;;;11.70;11.40;;;17.70;80.40;;;;;;5034788;28;20464;-47
2021/12/10 03:25:07;;;;;;;11.90;11.60;;;17.60;80.50;;;;;;5035195;28;20930;-48
2021/12/10 03:27:34;;;;;;;11.47;11.17;;;17.60;80.70;;;;;;5034648;28;20484;-47
2021/12/10 03:30:02;;;;;;;11.80;11.50;;;17.70;81.00;;;;;;5035020;28;20476;-47
2021/12/10 03:32:32;;;;;;;12.53;12.13;;;17.70;81.30;;;;;;5034692;28;20500;-48
2021/12/10 03:35:00;;;;;;;12.10;11.80;;;17.60;81.20;;;;;;5034742;28;20453;-47
2021/12/10 03:37:27;;;;;;;12.53;12.13;;;17.60;81.70;;;;;;5034459;28;20437;-48
2021/12/10 03:39:54;;;;;;;12.00;11.70;;;17.60;82.00;;;;;;5034704;28;20441;-47
2021/12/10 03:42:22;;;;;;;11.70;11.40;;;17.60;81.90;;;;;;5034052;28;20827;-47
2021/12/10 03:44:49;;;;;;;12.23;11.93;;;17.60;81.80;;;;;;5034547;28;20448;-47
2021/12/10 03:47:17;;;;;;;11.33;11.03;;;17.60;81.80;;;;;;5034025;28;20476;-50
2021/12/10 03:49:44;;;;;;;11.80;11.40;;;17.60;82.40;;;;;;5034337;28;20449;-47
2021/12/10 03:52:11;;;;;;;11.80;11.50;;;17.50;82.40;;;;;;5034210;28;20974;-49
2021/12/10 03:54:39;;;;;;;11.47;11.17;;;17.50;83.00;;;;;;5034186;28;20453;-47
2021/12/10 03:57:07;;;;;;;11.97;11.67;;;17.50;83.20;;;;;;5033988;28;20441;-46
2021/12/10 03:59:36;;;;;;;11.67;11.37;;;17.60;83.30;;;;;;5034342;28;20935;-49
2021/12/10 04:02:05;;;;;;;11.70;11.40;;;17.70;82.90;;;;;;5033865;28;20469;-48
2021/12/10 04:04:36;;;;;;;12.60;12.30;;;17.70;82.70;;;;;;5034026;28;20449;-47
2021/12/10 04:07:06;;;;;;;12.03;11.73;;;17.80;82.40;;;;;;5033984;28;20861;-47
2021/12/10 04:09:33;;;;;;;12.27;11.97;;;17.70;82.50;;;;;;5034161;28;20456;-47
2021/12/10 04:12:00;;;;;;;12.37;11.97;;;17.70;82.50;;;;;;5033792;28;20875;-47
2021/12/10 04:14:27;;;;;;;12.27;11.87;;;17.70;82.40;;;;;;5033992;28;20449;-46
2021/12/10 04:16:56;;;;;;;12.20;11.90;;;17.70;82.40;;;;;;5033778;28;20934;-47
2021/12/10 04:19:25;;;;;;;11.97;11.67;;;17.70;82.60;;;;;;5033784;28;20511;-47
2021/12/10 04:21:56;;;;;;;11.83;11.53;;;17.70;83.50;;;;;;5033493;28;20472;-48
2021/12/10 04:24:25;;;;;;;12.20;11.90;;;17.80;82.50;;;;;;5033770;28;20507;-47
2021/12/10 04:26:53;;;;;;;11.50;11.20;;;17.80;82.20;;;;;;5033185;28;20445;-47
2021/12/10 04:29:21;;;;;;;11.53;11.13;;;17.80;82.20;;;;;;5033720;28;20445;-48
2021/12/10 04:31:48;;;;;;;11.60;11.30;;;17.80;82.40;;;;;;5033395;28;20469;-47
2021/12/10 04:34:15;;;;;;;11.80;11.50;;;17.80;82.20;;;;;;5033724;28;20818;-47
2021/12/10 04:36:42;;;;;;;11.90;11.60;;;17.80;82.10;;;;;;5033368;28;20445;-47
2021/12/10 04:39:10;;;;;;;12.03;11.73;;;17.80;82.10;;;;;;5033561;28;20456;-47
2021/12/10 04:41:37;;;;;;;12.50;12.20;;;17.80;82.40;;;;;;5033189;28;20481;-47
2021/12/10 04:44:04;;;;;;;12.33;11.93;;;17.80;82.40;;;;;;5033493;28;20853;-46
2021/12/10 04:46:32;;;;;;;13.30;12.90;;;17.70;82.50;;;;;;5033230;28;20445;-47
2021/12/10 04:49:00;;;;;;;12.30;12.00;;;17.70;82.80;;;;;;5033385;28;20503;-47
2021/12/10 04:51:30;;;;;;;12.20;11.90;;;17.60;83.60;;;;;;5013544;28;20469;-47
2021/12/10 04:53:58;;;;;;;12.10;11.80;;;17.60;83.60;;;;;;5013970;28;20457;-47
2021/12/10 04:56:27;;;;;;;12.43;12.13;;;17.70;83.70;;;;;;5014127;28;20838;-46
2021/12/10 04:58:54;;;;;;;12.37;12.07;;;17.60;83.70;;;;;;5033395;28;20808;-48
2021/12/10 05:01:21;;;;;;;12.80;12.40;;;17.70;83.40;;;;;;5033355;28;20469;-48
2021/12/10 05:03:48;;;;;;;12.40;12.10;;;17.70;83.70;;;;;;5033080;28;20536;-49
2021/12/10 05:06:15;;;;;;;13.17;12.87;;;17.60;83.80;;;;;;5033221;28;20455;-47
2021/12/10 05:08:42;;;;;;;12.53;12.20;;;17.50;84.60;;;;;;5032459;28;20481;-47
2021/12/10 05:11:10;;;;;;;13.80;13.40;;;17.60;85.30;;;;;;5033173;28;20444;-47
2021/12/10 05:13:41;;;;;;;13.07;12.67;;;17.50;86.20;;;;;;5033014;28;20456;-46
2021/12/10 05:16:08;;;;;;;13.00;12.60;;;17.50;86.60;;;;;;5033067;28;20456;-48
2021/12/10 05:18:39;;;;;;;13.57;13.17;;;17.50;86.90;;;;;;5032617;28;20951;-47
2021/12/10 05:21:08;;;;;;;12.47;12.17;;;17.50;86.80;;;;;;5032915;28;20449;-47
2021/12/10 05:23:35;;;;;;;13.50;13.10;;;17.60;86.80;;;;;;5032325;28;20449;-50
2021/12/10 05:26:02;;;;;;;13.73;13.17;;;17.40;87.40;;;;;;5032582;28;20448;-49
2021/12/10 05:28:29;;;;;;;13.00;12.60;;;17.50;88.50;;;;;;5032580;28;20507;-50
2021/12/10 05:30:59;;;;;;;13.17;12.77;;;17.50;87.40;;;;;;5032310;28;20927;-49
2021/12/10 05:33:28;;;;;;;12.80;12.40;;;17.50;87.00;;;;;;5032370;28;20456;-48
2021/12/10 05:35:57;;;;;;;15.40;14.33;;;17.50;87.80;;;;;;5032303;28;20966;-51
2021/12/10 05:38:24;;;;;;;14.77;13.87;;;17.50;99.90;;;;;;5031841;28;20804;-48
2021/12/10 05:40:53;;;;;;;15.37;14.13;;;17.60;99.90;;;;;;5032621;28;20449;-48
2021/12/10 05:43:21;;;;;;;16.63;13.13;;;17.60;99.90;;;;;;5071608;22;20506;-44
2021/12/10 05:45:49;;;;;;;13.03;11.80;;;17.70;99.90;;;;;;5051246;28;20444;-44
2021/12/10 05:48:18;;;;;;;12.07;10.20;;;17.70;99.90;;;;;;5052034;28;20491;-45
2021/12/10 05:50:45;;;;;;;13.63;12.30;;;17.80;99.90;;;;;;5051931;28;20451;-44
2021/12/10 05:53:12;;;;;;;14.77;13.57;;;18.40;99.90;;;;;;5051493;28;20472;-45
2021/12/10 05:55:41;;;;;;;14.20;12.93;;;19.10;99.90;;;;;;5051696;28;20444;-44
2021/12/10 05:58:08;;;;;;;15.27;14.00;;;19.60;99.90;;;;;;5051790;28;20448;-48
2021/12/10 06:00:38;;;;;;;14.77;13.63;;;19.80;99.90;;;;;;5051733;28;20798;-45
2021/12/10 06:03:06;;;;;;;15.33;14.33;;;20.00;99.90;;;;;;5051297;28;20479;-59
2021/12/10 06:05:34;;;;;;;15.47;14.43;;;20.10;99.90;;;;;;5051345;28;20930;-49
2021/12/10 06:08:01;;;;;;;16.30;15.03;;;20.30;99.90;;;;;;5050805;28;20479;-49
2021/12/10 06:10:28;;;;;;;16.60;15.10;;;20.30;99.90;;;;;;5050797;28;20444;-47
2021/12/10 06:12:55;;;;;;;17.13;15.47;;;20.30;99.90;;;;;;5051125;28;20472;-47
2021/12/10 06:15:24;;;;;;;15.83;14.67;;;20.30;99.90;;;;;;5051909;28;20470;-49
2021/12/10 06:17:50;;;;;;;17.30;16.10;;;20.30;99.10;;;;;;5051455;28;20436;-46
2021/12/10 06:20:22;;;;;;;16.37;15.27;;;20.50;98.60;;;;;;5051496;28;20444;-48
2021/12/10 06:22:51;;;;;;;16.20;15.10;;;20.50;97.60;;;;;;5050972;28;20824;-47
2021/12/10 06:25:17;;;;;;;15.30;14.30;;;20.40;96.90;;;;;;5051402;28;20524;-47
2021/12/10 06:27:45;;;;;;;15.20;14.50;;;20.40;96.20;;;;;;5051298;28;20476;-47
2021/12/10 06:30:14;;;;;;;16.10;14.93;;;20.40;95.50;;;;;;5051383;28;20860;-47
2021/12/10 06:32:42;;;;;;;16.70;15.20;;;20.40;95.00;;;;;;5051055;28;20472;-47
2021/12/10 06:35:09;;;;;;;15.63;14.73;;;20.30;94.40;;;;;;5051414;28;20448;-49
2021/12/10 06:37:36;;;;;;;16.33;14.90;;;20.30;93.90;;;;;;5051524;28;20437;-46
2021/12/10 06:40:06;;;;;;;16.27;15.27;;;20.30;93.30;;;;;;5051314;28;20448;-47
2021/12/10 06:42:33;;;;;;;16.30;15.20;;;20.30;92.80;;;;;;5050927;28;20479;-47
2021/12/10 06:45:00;;;;;;;16.03;14.90;;;20.40;92.30;;;;;;5051292;28;20524;-47
2021/12/10 06:47:27;;;;;;;15.80;14.90;;;20.40;91.80;;;;;;5051306;28;20454;-47
2021/12/10 06:49:53;;;;;;;16.47;15.40;;;20.40;91.00;;;;;;5051885;28;20451;-50
2021/12/10 06:52:20;;;;;;;15.43;14.60;;;20.30;90.60;;;;;;5054867;28;20475;-47
2021/12/10 06:54:47;;;;;;;16.60;15.30;;;20.30;90.30;;;;;;5055239;28;20966;-47
2021/12/10 06:57:15;;;;;;;16.17;15.37;;;20.30;89.90;;;;;;5055169;28;20443;-47
2021/12/10 06:59:42;;;;;;;16.47;15.73;;;20.30;89.10;;;;;;5055053;28;20450;-47
2021/12/10 07:02:08;;;;;;;16.00;15.40;;;20.20;89.00;;;;;;5054717;28;20822;-48
2021/12/10 07:04:40;;;;;;;16.13;15.13;;;20.30;87.70;;;;;;5055034;28;20474;-47
2021/12/10 07:07:08;;;;;;;14.67;14.10;;;20.30;86.70;;;;;;5054939;28;20861;-48
2021/12/10 07:09:34;;;;;;;13.17;12.67;;;20.30;85.80;;;;;;5054878;28;20483;-47
2021/12/10 07:12:02;;;;;;;12.13;11.73;;;20.30;85.00;;;;;;5054598;28;20475;-48
2021/12/10 07:14:30;;;;;;;13.90;13.00;;;20.30;84.40;;;;;;5054915;28;20451;-47
2021/12/10 07:16:57;;;;;;;13.97;13.30;;;20.20;83.50;;;;;;5054703;28;20448;-49
2021/12/10 07:19:26;;;;;;;14.53;13.90;;;20.20;83.00;;;;;;5054838;28;20440;-48
2021/12/10 07:21:53;;;;;;;14.20;13.40;;;20.10;82.40;;;;;;5054378;28;20476;-47
2021/12/10 07:24:20;;;;;;;13.77;13.17;;;20.10;82.30;;;;;;5054659;28;20482;-49
2021/12/10 07:26:48;;;;;;;13.17;12.60;;;20.10;82.00;;;;;;5054632;28;20452;-47
2021/12/10 07:29:15;;;;;;;13.03;12.23;;;20.00;81.70;;;;;;5054404;28;20488;-47
2021/12/10 07:31:45;;;;;;;14.03;13.57;;;20.00;81.50;;;;;;5054292;28;20828;-47
2021/12/10 07:34:12;;;;;;;13.50;13.00;;;20.00;81.20;;;;;;5054388;28;20455;-47
2021/12/10 07:36:40;;;;;;;12.93;12.37;;;19.80;81.10;;;;;;5054380;28;21044;-47
2021/12/10 07:39:07;;;;;;;13.43;12.80;;;19.70;81.10;;;;;;5054446;28;20440;-47
2021/12/10 07:41:35;;;;;;;13.43;12.93;;;19.60;81.40;;;;;;5053897;28;20444;-49
2021/12/10 07:44:02;;;;;;;14.17;13.47;;;19.50;81.80;;;;;;5054292;28;20447;-47
2021/12/10 07:46:29;;;;;;;12.47;12.07;;;19.40;82.00;;;;;;5054240;28;20820;-50
2021/12/10 07:48:57;;;;;;;13.53;12.80;;;19.30;82.20;;;;;;5054201;28;20506;-47
2021/12/10 07:51:26;;;;;;;13.30;12.80;;;19.20;82.60;;;;;;5054042;28;20448;-49
2021/12/10 07:53:57;;;;;;;12.83;12.43;;;19.10;83.10;;;;;;5054014;28;20945;-47
2021/12/10 07:56:25;;;;;;;13.03;12.53;;;19.00;83.30;;;;;;5054067;28;20455;-47
2021/12/10 07:58:52;;;;;;;13.50;12.90;;;18.90;83.60;;;;;;5053985;28;20817;-47
2021/12/10 08:01:25;;;;;;;14.50;14.00;;;18.90;84.10;;;;;;5053528;28;21085;-47
2021/12/10 08:03:53;;;;;;;13.53;13.07;;;18.80;84.30;;;;;;5053807;28;20487;-46
2021/12/10 08:06:21;;;;;;;13.83;13.27;;;18.70;84.50;;;;;;5053785;28;20448;-47
2021/12/10 08:08:49;;;;;;;12.83;12.33;;;18.70;84.60;;;;;;5053699;28;20488;-47
2021/12/10 08:11:17;;;;;;;13.30;12.90;;;18.70;84.70;;;;;;5053706;28;20452;-47
2021/12/10 08:13:44;;;;;;;13.20;12.70;;;18.60;84.70;;;;;;5053563;28;20472;-49
2021/12/10 08:16:11;;;;;;;12.97;12.57;;;18.60;84.80;;;;;;5053609;28;20471;-47
2021/12/10 08:18:38;;;;;;;13.90;13.30;;;18.60;84.90;;;;;;5053717;28;20782;-47
2021/12/10 08:21:05;;;;;;;13.17;12.70;;;18.50;84.90;;;;;;5053513;28;20444;-49
2021/12/10 08:23:34;;;;;;;13.10;12.60;;;18.50;84.90;;;;;;5053237;28;20464;-47
2021/12/10 08:26:01;;;;;;;14.00;13.50;;;18.50;84.80;;;;;;5053534;28;20456;-47
2021/12/10 08:28:28;;;;;;;13.50;13.10;;;18.50;84.60;;;;;;5053368;28;20484;-47
2021/12/10 08:30:55;;;;;;;13.60;13.10;;;18.40;84.40;;;;;;5053447;28;20470;-47
2021/12/10 08:33:23;;;;;;;13.60;13.10;;;18.50;84.40;;;;;;5053152;28;20468;-47
2021/12/10 08:35:53;;;;;;;12.73;12.43;;;18.40;84.10;;;;;;5053329;28;20808;-47
2021/12/10 08:38:21;;;;;;;12.63;12.23;;;18.40;84.00;;;;;;5053402;28;20451;-47
2021/12/10 08:40:54;;;;;;;12.80;12.40;;;18.40;84.00;;;;;;5053351;28;20456;-47
2021/12/10 08:43:21;;;;;;;13.30;12.83;;;18.40;84.10;;;;;;5052876;28;20507;-47
2021/12/10 08:45:51;;;;;;;13.00;12.50;;;18.40;83.90;;;;;;5053145;28;20452;-49
2021/12/10 08:48:18;;;;;;;13.03;12.53;;;18.30;83.90;;;;;;5053065;28;20567;-49
2021/12/10 08:50:45;;;;;;;13.57;13.17;;;18.30;84.00;;;;;;5053050;28;20933;-47
2021/12/10 08:53:13;;;;;;;12.27;11.77;;;18.30;84.10;;;;;;5052654;28;20470;-47
2021/12/10 08:55:42;;;;;;;12.67;12.27;;;18.20;83.90;;;;;;5052995;28;20488;-47
2021/12/10 08:58:11;;;;;;;12.00;11.60;;;18.30;83.90;;;;;;5052882;28;20826;-47
2021/12/10 09:00:40;;;;;;;13.80;13.30;;;18.30;83.60;;;;;;5052694;28;20479;-47
2021/12/10 09:03:07;;;;;;;13.20;12.80;;;18.30;83.40;;;;;;5052525;28;20459;-47
2021/12/10 09:05:34;;;;;;;13.13;12.77;;;18.30;83.20;;;;;;5052734;28;20924;-47
2021/12/10 09:08:01;;;;;;;13.83;13.33;;;18.30;83.80;;;;;;5052659;28;20497;-52
2021/12/10 09:10:33;;;;;;;13.67;13.17;;;18.30;83.00;;;;;;5052745;28;20949;-46
2021/12/10 09:13:00;;;;;;;12.80;12.40;;;18.30;82.90;;;;;;5051743;28;20469;-47
2021/12/10 09:15:29;;;;;;;13.00;12.70;;;18.20;82.70;;;;;;5052134;28;20448;-48
2021/12/10 09:17:58;;;;;;;13.10;12.60;;;18.20;82.70;;;;;;5052481;28;20448;-46
2021/12/10 09:20:30;;;;;;;13.17;12.70;;;18.10;82.60;;;;;;5052451;28;20509;-49
2021/12/10 09:22:57;;;;;;;12.90;12.60;;;18.10;83.00;;;;;;5052159;28;20492;-48
2021/12/10 09:25:24;;;;;;;12.83;12.33;;;18.10;82.90;;;;;;5052517;28;20508;-46
2021/12/10 09:27:51;;;;;;;13.53;13.03;;;18.10;82.70;;;;;;5052366;28;20456;-46
2021/12/10 09:30:21;;;;;;;14.03;13.40;;;18.10;82.50;;;;;;5052127;28;20996;-47
2021/12/10 09:32:49;;;;;;;13.40;13.00;;;18.10;82.20;;;;;;5052103;28;21027;-47
2021/12/10 09:35:17;;;;;;;13.20;12.80;;;18.10;82.00;;;;;;5052109;28;20440;-46
2021/12/10 09:37:45;;;;;;;13.00;12.60;;;18.20;81.60;;;;;;5052359;28;20477;-46
2021/12/10 09:40:15;;;;;;;12.67;12.37;;;18.40;80.60;;;;;;5051933;28;20941;-48
2021/12/10 09:42:43;;;;;;;13.50;13.00;;;18.50;79.90;;;;;;5051830;28;20839;-48
2021/12/10 09:45:12;;;;;;;12.57;12.20;;;18.50;79.30;;;;;;5051973;28;20448;-48
2021/12/10 09:47:40;;;;;;;12.20;11.83;;;18.50;78.90;;;;;;5051974;28;20448;-47
2021/12/10 09:50:10;;;;;;;13.33;12.93;;;18.50;78.70;;;;;;5051873;28;21027;-47
2021/12/10 09:52:38;;;;;;;13.10;12.70;;;18.50;78.30;;;;;;5051660;28;20563;-47
2021/12/10 09:55:08;;;;;;;12.97;12.47;;;18.50;78.10;;;;;;5052000;28;20440;-47
2021/12/10 09:57:36;;;;;;;12.40;12.10;;;18.50;77.80;;;;;;5051908;28;20451;-46
2021/12/10 10:00:07;;;;;;;12.67;12.27;;;18.50;77.60;;;;;;5051876;28;20447;-46
2021/12/10 10:02:34;;;;;;;12.80;12.30;;;18.50;77.30;;;;;;5051607;28;20464;-47
2021/12/10 10:05:04;;;;;;;12.47;12.10;;;18.50;77.20;;;;;;5051755;28;20451;-46
2021/12/10 10:07:33;;;;;;;12.70;12.30;;;18.50;77.00;;;;;;5051672;28;20448;-47
2021/12/10 10:10:04;;;;;;;12.70;12.30;;;18.50;77.60;;;;;;5051515;28;20491;-46
2021/12/10 10:12:35;;;;;;;11.90;11.50;;;18.40;76.60;;;;;;5051319;28;20472;-46
2021/12/10 10:15:05;;;;;;;12.00;11.60;;;18.40;76.60;;;;;;5051606;28;20664;-47
2021/12/10 10:17:32;;;;;;;12.17;11.87;;;18.40;76.50;;;;;;5051563;28;20520;-47
2021/12/10 10:19:59;;;;;;;12.40;12.10;;;18.40;76.50;;;;;;5051565;28;20436;-50
2021/12/10 10:22:30;;;;;;;12.60;12.30;;;18.30;76.40;;;;;;5051118;28;20472;-47
2021/12/10 10:24:58;;;;;;;13.00;12.50;;;18.40;76.40;;;;;;5051283;28;20527;-49
2021/12/10 10:27:30;;;;;;;12.73;12.37;;;18.40;76.40;;;;;;5051448;28;20440;-47
2021/12/10 10:30:01;;;;;;;12.30;12.00;;;18.30;76.00;;;;;;5051233;28;20487;-48
2021/12/10 10:32:31;;;;;;;12.23;11.83;;;18.40;75.90;;;;;;5051078;28;20817;-48
2021/12/10 10:35:01;;;;;;;13.30;12.90;;;18.40;75.50;;;;;;5051527;28;20502;-48
2021/12/10 10:37:28;;;;;;;12.60;12.20;;;18.40;75.30;;;;;;5051281;28;20444;-46
2021/12/10 10:39:55;;;;;;;12.73;12.33;;;18.40;75.00;;;;;;5051244;28;20448;-48
2021/12/10 10:42:28;;;;;;;13.20;12.80;;;18.40;74.80;;;;;;5050841;28;20973;-47
2021/12/10 10:44:59;;;;;;;12.57;12.17;;;18.40;74.50;;;;;;5051355;28;20864;-48
2021/12/10 10:47:26;;;;;;;12.20;11.90;;;18.40;74.30;;;;;;5051190;28;20440;-47
2021/12/10 10:49:56;;;;;;;12.57;12.17;;;18.40;74.20;;;;;;5051157;28;20856;-48
2021/12/10 10:52:28;;;;;;;12.90;12.50;;;18.40;74.20;;;;;;5050961;28;20464;-47
2021/12/10 10:54:57;;;;;;;13.07;12.77;;;18.40;74.10;;;;;;5051172;28;20821;-47
2021/12/10 10:57:29;;;;;;;13.40;13.00;;;18.40;74.10;;;;;;5051141;28;20456;-47
2021/12/10 11:00:02;;;;;;;12.63;12.17;;;18.40;74.10;;;;;;5051303;28;20433;-51
2021/12/10 11:02:40;;;;;;;12.20;11.90;;;18.30;74.10;;;;;;5050843;28;20562;-47
2021/12/10 11:05:11;;;;;;;12.33;12.03;;;18.20;74.40;;;;;;5051075;28;20444;-47
2021/12/10 11:07:47;;;;;;;12.20;11.80;;;18.20;74.50;;;;;;5050984;28;20568;-47
2021/12/10 11:10:15;;;;;;;12.50;12.20;;;18.20;74.50;;;;;;5050958;28;20510;-47
2021/12/10 11:12:43;;;;;;;13.33;12.93;;;18.20;74.30;;;;;;5050713;28;20537;-46
2021/12/10 11:15:12;;;;;;;12.53;12.23;;;18.20;74.10;;;;;;5050999;28;20867;-49
2021/12/10 11:17:42;;;;;;;12.07;11.77;;;18.20;73.80;;;;;;5050793;28;20456;-46
2021/12/10 11:20:14;;;;;;;11.77;11.47;;;18.20;73.70;;;;;;5051081;28;20448;-47
2021/12/10 11:22:46;;;;;;;11.83;11.53;;;18.20;73.60;;;;;;5050580;28;20464;-47
2021/12/10 11:25:17;;;;;;;12.90;12.53;;;18.20;73.70;;;;;;5050725;28;20440;-46
2021/12/10 11:27:46;;;;;;;13.27;12.87;;;18.20;73.50;;;;;;5050839;28;20833;-50
2021/12/10 11:30:15;;;;;;;13.00;12.60;;;18.30;73.30;;;;;;5050617;28;20484;-48
2021/12/10 11:32:50;;;;;;;13.03;12.53;;;18.30;72.90;;;;;;5050545;28;20996;-48
2021/12/10 11:35:19;;;;;;;12.87;12.47;;;18.30;72.60;;;;;;5050778;28;20448;-47
2021/12/10 11:37:52;;;;;;;13.33;12.73;;;18.30;72.40;;;;;;5052871;28;20444;-49
2021/12/10 11:40:44;;;;;;;12.67;12.37;;;18.30;72.40;;;;;;5054557;28;20494;-47
2021/12/10 11:43:43;;;;;;;13.13;12.73;;;18.30;72.50;;;;;;5065664;22;20916;-52
2021/12/10 11:46:28;;;;;;;12.93;12.63;;;18.30;72.50;;;;;;5054239;28;20476;-56
2021/12/10 11:49:08;;;;;;;12.60;12.30;;;18.20;72.50;;;;;;5054214;28;20448;-48
2021/12/10 11:51:38;;;;;;;13.37;12.97;;;18.10;72.70;;;;;;5053961;28;20444;-51
2021/12/10 11:54:09;;;;;;;12.90;12.50;;;18.10;72.80;;;;;;5054216;28;20468;-52
2021/12/10 11:56:38;;;;;;;13.27;12.77;;;18.10;72.80;;;;;;5054336;28;20475;-50
2021/12/10 11:59:09;;;;;;;12.67;12.37;;;18.10;72.90;;;;;;5054237;28;20451;-50
2021/12/10 12:01:48;;;;;;;12.87;12.47;;;18.20;72.70;;;;;;5053727;28;20813;-54
2021/12/10 12:04:17;;;;;;;11.90;11.60;;;18.20;72.60;;;;;;5053769;28;20468;-52
2021/12/10 12:06:43;;;;;;;12.90;12.50;;;18.10;72.20;;;;;;5053907;28;20452;-48
2021/12/10 12:09:29;;;;;;;12.37;12.03;;;18.20;72.10;;;;;;5053741;28;20447;-54
2021/12/10 12:12:08;;;;;;;12.20;11.87;;;18.20;71.80;;;;;;5053638;28;20455;-50
2021/12/10 12:14:37;;;;;;;12.80;12.40;;;18.30;71.50;;;;;;5053697;28;20443;-49
2021/12/10 12:17:06;;;;;;;12.50;12.20;;;18.30;71.20;;;;;;5053713;28;20448;-51
2021/12/10 12:19:35;;;;;;;12.50;12.10;;;18.30;70.80;;;;;;5053627;28;20475;-55
2021/12/10 12:25:09;;;;;;;13.00;12.60;;;18.40;70.30;;;;;;5053731;28;20419;-50
2021/12/10 12:27:36;;;;;;;12.77;12.27;;;18.40;70.00;;;;;;5053905;28;20476;-52
2021/12/10 12:30:07;;;;;;;12.60;12.20;;;18.40;69.80;;;;;;5053387;28;21031;-49
2021/12/10 12:32:38;;;;;;;12.40;12.00;;;18.40;69.70;;;;;;5053220;28;20470;-52
2021/12/10 12:35:15;;;;;;;13.13;12.73;;;18.40;69.40;;;;;;5053690;28;20518;-52
2021/12/10 12:37:42;;;;;;;12.40;12.10;;;18.40;69.40;;;;;;5053413;28;20463;-51
2021/12/10 12:40:10;;;;;;;12.87;12.50;;;18.40;69.50;;;;;;5053346;28;20448;-53
2021/12/10 12:42:42;;;;;;;13.33;12.93;;;18.30;69.50;;;;;;5052908;28;20480;-50
2021/12/10 12:45:13;;;;;;;13.10;12.70;;;18.30;69.50;;;;;;5053285;28;21015;-49
2021/12/10 12:47:41;;;;;;;13.13;12.57;;;18.30;69.60;;;;;;5052852;28;20784;-48
2021/12/10 12:50:12;;;;;;;12.40;12.10;;;18.20;69.40;;;;;;5053190;28;20855;-54